Terminal Aerodrome Forecast
Issued by NWS Sterling, VA

Current Version | Previous Version | Text Only | Print | Product List | Glossary Off
Versions: 1 2 3 4 5 6 7 8 9 10 11 12 13 14 15 16 17 18 19 20 21 22

000
FTUS41 KLWX 301500 AAB
TAFDCA
TAF AMD
KDCA 301503Z 3015/0112 00000KT P6SM OVC013
     FM301800 17005KT P6SM BKN050
     FM010100 11005KT P6SM BKN050 BKN150
     FM010800 02006KT P6SM OVC015=

USA.gov is the U.S. government's official web portal to all federal, state and local government web resources and services.